Nichioh Maru — JD3267 — position and weather

sailwx.info

Track history (hours):
 
Tides and Currents Weather Stations Pressure Air Temp Water Temp Dewpoint Dewpoint Depression Visibility Wind Speed Wind Dir Waves Ship Positions

Nichioh Maru

Last reported at 2014-Dec-22 04:21 UTC. Time now 2014-Dec-22 19:32 UTC.
Position N 34°35' E 134°52'.

Length 170 m; draft 6.5 m.

Type: Cargo ship. MMSI: 431003232.

Date/timePositionNaut miles runAvg speedWind from/ knotsBaromVisibWave heightAir tempDewpointWater temp
2014-Dec-22 04:21N 34°35' E 134°52'1316.2
2014-Dec-22 03:33N 34°36' E 135°08'6 6.4
2014-Dec-22 02:33N 34°41' E 135°13'0 0.0
2014-Dec-22 01:32N 34°41' E 135°13'0 0.0
2014-Dec-22 00:32N 34°41' E 135°13'0 0.0
2014-Dec-21 23:33N 34°41' E 135°13'4 4.0
2014-Dec-21 22:34N 34°37' E 135°16'1313.2
2014-Dec-21 21:33N 34°26' E 135°07'1817.7
2014-Dec-21 20:33N 34°10' E 134°59'237 8.4
2014-Dec-20 16:22N 35°04' E 139°40'1315.2
2014-Dec-20 15:32N 35°16' E 139°46'1313.3
2014-Dec-20 14:34N 35°29' E 139°48'2 1.9
2014-Dec-20 13:33N 35°30' E 139°46'0 0.0
2014-Dec-20 12:25N 35°30' E 139°46'0 0.0
2014-Dec-20 11:31N 35°30' E 139°46'0 0.0
2014-Dec-20 10:31N 35°30' E 139°46'0 0.0
2014-Dec-20 09:25N 35°30' E 139°46'0 0.0
2014-Dec-20 08:31N 35°30' E 139°46'0 0.0
2014-Dec-20 07:31N 35°30' E 139°46'0 0.0
2014-Dec-20 06:31N 35°30' E 139°46'0 0.0
2014-Dec-20 05:31N 35°30' E 139°46'0 0.0
2014-Dec-20 04:33N 35°30' E 139°46'6 6.2
2014-Dec-20 03:33N 35°24' E 139°46'8 8.0
2014-Dec-20 02:33N 35°19' E 139°39'0 0.0
2014-Dec-20 01:32N 35°19' E 139°39'0 0.0
2014-Dec-20 00:32N 35°19' E 139°39'0 0.0
2014-Dec-19 23:32N 35°19' E 139°39'0 0.0
2014-Dec-19 22:32N 35°19' E 139°39'7 7.4
2014-Dec-19 21:34N 35°15' E 139°47'1713.2
2014-Dec-19 20:17N 35°01' E 139°37'23714.8
2014-Dec-19 04:16N 34°05' E 134°57'1620.0
2014-Dec-19 03:28N 34°21' E 134°60'1819.4
2014-Dec-19 02:34N 34°34' E 135°14'7 5.9
2014-Dec-19 01:26N 34°41' E 135°13'0 0.0
2014-Dec-19 00:32N 34°41' E 135°13'0 0.0
2014-Dec-18 23:32N 34°41' E 135°13'3 2.7
2014-Dec-18 22:33N 34°39' E 135°16'2 2.2
2014-Dec-18 21:29N 34°36' E 135°16'0 0.0
2014-Dec-18 20:29N 34°36' E 135°16'0 0.0
2014-Dec-18 19:29N 34°37' E 135°16'0 0.0
2014-Dec-18 18:17N 34°37' E 135°16'0 0.0
2014-Dec-18 17:29N 34°36' E 135°16'5 5.2
2014-Dec-18 16:34N 34°35' E 135°11'  
2014-Dec-15 03:32N 34°37' E 135°01'1111.4
2014-Dec-15 02:33N 34°41' E 135°14'0 0.4
2014-Dec-15 01:24N 34°41' E 135°13'0 0.0
2014-Dec-15 00:30N 34°41' E 135°13'0 0.0
2014-Dec-14 23:30N 34°41' E 135°13'3 3.2
2014-Dec-14 22:34N 34°38' E 135°16'1918.8
2014-Dec-14 21:33N 34°22' E 135°04'1919.0
2014-Dec-14 20:33N 34°04' E 134°60'239 7.2
2014-Dec-13 11:33N 35°05' E 139°40'1312.7
2014-Dec-13 10:33N 35°18' E 139°44'1312.8
2014-Dec-13 09:33N 35°30' E 139°47'1 1.1
2014-Dec-13 08:33N 35°30' E 139°46'0 0.0
2014-Dec-13 07:33N 35°30' E 139°46'0 0.0
2014-Dec-13 06:33N 35°30' E 139°46'0 0.0
2014-Dec-13 05:33N 35°30' E 139°46'1 1.0
2014-Dec-13 04:33N 35°30' E 139°45'8 7.9
2014-Dec-13 03:33N 35°22' E 139°45'6 6.0
2014-Dec-13 02:32N 35°19' E 139°39'0 0.0
2014-Dec-13 01:29N 35°19' E 139°39'0 0.0
2014-Dec-13 00:32N 35°19' E 139°39'0 0.0
2014-Dec-12 23:32N 35°19' E 139°39'0 0.0
2014-Dec-12 22:33N 35°19' E 139°39'8 8.2
2014-Dec-12 21:33N 35°14' E 139°47'24714.5
2014-Dec-12 04:33N 34°06' E 134°58'  
Track history (hours):
 
Tides and Currents Weather Stations Pressure Air Temp Water Temp Dewpoint Dewpoint Depression Visibility Wind Speed Wind Dir Waves Ship Positions

Nichioh Maru

Last reported at 2014-Dec-22 04:21 UTC. Time now 2014-Dec-22 19:32 UTC.
Position N 34°35' E 134°52'.

Length 170 m; draft 6.5 m.

Type: Cargo ship. MMSI: 431003232.

Date/timePositionNaut miles runAvg speedWind from/ knotsBaromVisibWave heightAir tempDewpointWater temp
2014-Dec-22 04:21N 34°35' E 134°52'1316.2
2014-Dec-22 03:33N 34°36' E 135°08'6 6.4
2014-Dec-22 02:33N 34°41' E 135°13'0 0.0
2014-Dec-22 01:32N 34°41' E 135°13'0 0.0
2014-Dec-22 00:32N 34°41' E 135°13'0 0.0
2014-Dec-21 23:33N 34°41' E 135°13'4 4.0
2014-Dec-21 22:34N 34°37' E 135°16'1313.2
2014-Dec-21 21:33N 34°26' E 135°07'1817.7
2014-Dec-21 20:33N 34°10' E 134°59'237 8.4
2014-Dec-20 16:22N 35°04' E 139°40'1315.2
2014-Dec-20 15:32N 35°16' E 139°46'1313.3
2014-Dec-20 14:34N 35°29' E 139°48'2 1.9
2014-Dec-20 13:33N 35°30' E 139°46'0 0.0
2014-Dec-20 12:25N 35°30' E 139°46'0 0.0
2014-Dec-20 11:31N 35°30' E 139°46'0 0.0
2014-Dec-20 10:31N 35°30' E 139°46'0 0.0
2014-Dec-20 09:25N 35°30' E 139°46'0 0.0
2014-Dec-20 08:31N 35°30' E 139°46'0 0.0
2014-Dec-20 07:31N 35°30' E 139°46'0 0.0
2014-Dec-20 06:31N 35°30' E 139°46'0 0.0
2014-Dec-20 05:31N 35°30' E 139°46'0 0.0
2014-Dec-20 04:33N 35°30' E 139°46'6 6.2
2014-Dec-20 03:33N 35°24' E 139°46'8 8.0
2014-Dec-20 02:33N 35°19' E 139°39'0 0.0
2014-Dec-20 01:32N 35°19' E 139°39'0 0.0
2014-Dec-20 00:32N 35°19' E 139°39'0 0.0
2014-Dec-19 23:32N 35°19' E 139°39'0 0.0
2014-Dec-19 22:32N 35°19' E 139°39'7 7.4
2014-Dec-19 21:34N 35°15' E 139°47'1713.2
2014-Dec-19 20:17N 35°01' E 139°37'23714.8
2014-Dec-19 04:16N 34°05' E 134°57'1620.0
2014-Dec-19 03:28N 34°21' E 134°60'1819.4
2014-Dec-19 02:34N 34°34' E 135°14'7 5.9
2014-Dec-19 01:26N 34°41' E 135°13'0 0.0
2014-Dec-19 00:32N 34°41' E 135°13'0 0.0
2014-Dec-18 23:32N 34°41' E 135°13'3 2.7
2014-Dec-18 22:33N 34°39' E 135°16'2 2.2
2014-Dec-18 21:29N 34°36' E 135°16'0 0.0
2014-Dec-18 20:29N 34°36' E 135°16'0 0.0
2014-Dec-18 19:29N 34°37' E 135°16'0 0.0
2014-Dec-18 18:17N 34°37' E 135°16'0 0.0
2014-Dec-18 17:29N 34°36' E 135°16'5 5.2
2014-Dec-18 16:34N 34°35' E 135°11'  
2014-Dec-15 03:32N 34°37' E 135°01'1111.4
2014-Dec-15 02:33N 34°41' E 135°14'0 0.4
2014-Dec-15 01:24N 34°41' E 135°13'0 0.0
2014-Dec-15 00:30N 34°41' E 135°13'0 0.0
2014-Dec-14 23:30N 34°41' E 135°13'3 3.2
2014-Dec-14 22:34N 34°38' E 135°16'1918.8
2014-Dec-14 21:33N 34°22' E 135°04'1919.0
2014-Dec-14 20:33N 34°04' E 134°60'239 7.2
2014-Dec-13 11:33N 35°05' E 139°40'1312.7
2014-Dec-13 10:33N 35°18' E 139°44'1312.8
2014-Dec-13 09:33N 35°30' E 139°47'1 1.1
2014-Dec-13 08:33N 35°30' E 139°46'0 0.0
2014-Dec-13 07:33N 35°30' E 139°46'0 0.0
2014-Dec-13 06:33N 35°30' E 139°46'0 0.0
2014-Dec-13 05:33N 35°30' E 139°46'1 1.0
2014-Dec-13 04:33N 35°30' E 139°45'8 7.9
2014-Dec-13 03:33N 35°22' E 139°45'6 6.0
2014-Dec-13 02:32N 35°19' E 139°39'0 0.0
2014-Dec-13 01:29N 35°19' E 139°39'0 0.0
2014-Dec-13 00:32N 35°19' E 139°39'0 0.0
2014-Dec-12 23:32N 35°19' E 139°39'0 0.0
2014-Dec-12 22:33N 35°19' E 139°39'8 8.2
2014-Dec-12 21:33N 35°14' E 139°47'24714.5
2014-Dec-12 04:33N 34°06' E 134°58'  

Dump ship's entire track history